Aviation Digital Data Service (ADDS)

Output produced by TAFs form (2113 UTC 22 October 2017)
found at http://www.aviationweather.gov/adds/tafs/
 
KDAB 222053Z 11010G16KT 8SM FEW035 SCT100 SCT250 28/24 A3008 RMK AO2 SLP185 T02830244 56012 $
KDAB 221901Z 2219/2318 11010KT P6SM VCSH FEW030 FEW090 SCT250 
     FM222300 10008KT P6SM SCT030 SCT050 BKN250 
     FM231500 16009G16KT P6SM SCT025 OVC050